Decoded Metar for LFPG (PARIS CHARLES DE GAULLE in FRANCE) (IATA:CDG) | Meteo·Mobile Aviation Weather
aviador You're here:

LFPG Decoded Metar

PARIS CHARLES DE GAULLE in FRANCE
Report Time2019-09-21 08:30:00
UTC Time2019-09-21 08:48:31
Flight Rules vfr VFR
Wind120° at 09 kt
W.Decomp.*RWY 09: 7.7 kt HW 4.6 kt RCW
RWY 08: 6.8 kt HW 5.9 kt RCW
Visibility9999 m
Phenomena:N/A
Clouds:N/A
Expected CloudBase > 4,400 ft AGL from Temp-Dew spread
CeilingNone
Temp17°C (ISA +3)
Dew Point06°C (49% RH)
AAT12.9°C
QNH1015 hPa
Density Alt738 ft
Elevation358 ft
Report Wrong Elevation
Raw Report
METAR LFPG 210830Z 12009KT CAVOK 17/06 Q1015 NOSIG=

Extra information for LFPG:More info

Metar Taf Metar & Taf Last 4 Metars F.Rules Stats Wind Profile Meteogram Temp Stats Airport Information Weather charts Add Link Nearby VenuesMetar ALERT Operation Metar Decoded Social comments